sensor_id;sensor_type;location;lat;lon;timestamp;P1;durP1;ratioP1;P2;durP2;ratioP2
2810;SDS011;1413;52.440;13.506;2022-09-09T00:01:21;10.75;;;6.75;;
2810;SDS011;1413;52.440;13.506;2022-09-09T00:03:52;14.13;;;6.43;;
2810;SDS011;1413;52.440;13.506;2022-09-09T00:06:21;9.25;;;6.05;;
2810;SDS011;1413;52.440;13.506;2022-09-09T00:08:51;9.13;;;5.75;;
2810;SDS011;1413;52.440;13.506;2022-09-09T00:11:23;10.10;;;6.13;;
2810;SDS011;1413;52.440;13.506;2022-09-09T00:13:58;10.10;;;6.50;;
2810;SDS011;1413;52.440;13.506;2022-09-09T00:16:29;8.70;;;5.75;;
2810;SDS011;1413;52.440;13.506;2022-09-09T00:19:00;8.07;;;5.60;;
2810;SDS011;1413;52.440;13.506;2022-09-09T00:21:30;8.75;;;5.45;;
2810;SDS011;1413;52.440;13.506;2022-09-09T00:23:59;11.23;;;6.28;;
2810;SDS011;1413;52.440;13.506;2022-09-09T00:26:30;9.48;;;5.70;;
2810;SDS011;1413;52.440;13.506;2022-09-09T00:29:03;9.77;;;5.80;;
2810;SDS011;1413;52.440;13.506;2022-09-09T00:31:31;9.50;;;5.47;;
2810;SDS011;1413;52.440;13.506;2022-09-09T00:34:00;8.38;;;5.07;;
2810;SDS011;1413;52.440;13.506;2022-09-09T00:36:30;11.38;;;5.60;;
2810;SDS011;1413;52.440;13.506;2022-09-09T00:39:00;9.00;;;5.55;;
2810;SDS011;1413;52.440;13.506;2022-09-09T00:41:31;10.35;;;5.57;;
2810;SDS011;1413;52.440;13.506;2022-09-09T00:44:02;7.90;;;5.20;;
2810;SDS011;1413;52.440;13.506;2022-09-09T00:49:24;8.55;;;5.28;;
2810;SDS011;1413;52.440;13.506;2022-09-09T00:51:58;7.70;;;4.93;;
2810;SDS011;1413;52.440;13.506;2022-09-09T00:54:28;7.68;;;5.15;;
2810;SDS011;1413;52.440;13.506;2022-09-09T00:57:02;9.40;;;6.05;;
2810;SDS011;1413;52.440;13.506;2022-09-09T00:59:34;9.23;;;5.70;;
2810;SDS011;1413;52.440;13.506;2022-09-09T01:02:08;9.70;;;5.78;;
2810;SDS011;1413;52.440;13.506;2022-09-09T01:04:41;8.32;;;5.13;;
2810;SDS011;1413;52.440;13.506;2022-09-09T01:07:11;9.50;;;5.93;;
2810;SDS011;1413;52.440;13.506;2022-09-09T01:09:42;8.73;;;5.80;;
2810;SDS011;1413;52.440;13.506;2022-09-09T01:12:13;8.18;;;4.95;;
2810;SDS011;1413;52.440;13.506;2022-09-09T01:14:44;10.52;;;5.20;;
2810;SDS011;1413;52.440;13.506;2022-09-09T01:17:14;10.77;;;5.47;;
2810;SDS011;1413;52.440;13.506;2022-09-09T01:19:45;8.70;;;5.05;;
2810;SDS011;1413;52.440;13.506;2022-09-09T01:22:18;8.95;;;5.22;;
2810;SDS011;1413;52.440;13.506;2022-09-09T01:25:01;10.65;;;5.03;;
2810;SDS011;1413;52.440;13.506;2022-09-09T01:27:36;9.43;;;5.07;;
2810;SDS011;1413;52.440;13.506;2022-09-09T01:30:04;8.75;;;5.07;;
2810;SDS011;1413;52.440;13.506;2022-09-09T01:32:37;9.07;;;4.85;;
2810;SDS011;1413;52.440;13.506;2022-09-09T01:35:05;9.65;;;5.78;;
2810;SDS011;1413;52.440;13.506;2022-09-09T01:37:34;8.40;;;5.32;;
2810;SDS011;1413;52.440;13.506;2022-09-09T01:40:02;9.75;;;5.43;;
2810;SDS011;1413;52.440;13.506;2022-09-09T01:42:29;11.73;;;5.63;;
2810;SDS011;1413;52.440;13.506;2022-09-09T01:44:58;10.43;;;5.38;;
2810;SDS011;1413;52.440;13.506;2022-09-09T01:47:25;10.07;;;6.18;;
2810;SDS011;1413;52.440;13.506;2022-09-09T01:49:53;9.65;;;5.63;;
2810;SDS011;1413;52.440;13.506;2022-09-09T01:52:20;8.82;;;5.63;;
2810;SDS011;1413;52.440;13.506;2022-09-09T01:54:48;8.65;;;5.60;;
2810;SDS011;1413;52.440;13.506;2022-09-09T01:57:17;9.90;;;5.20;;
2810;SDS011;1413;52.440;13.506;2022-09-09T01:59:49;7.93;;;4.80;;
2810;SDS011;1413;52.440;13.506;2022-09-09T02:02:23;8.07;;;4.88;;
2810;SDS011;1413;52.440;13.506;2022-09-09T02:04:54;11.15;;;5.47;;
2810;SDS011;1413;52.440;13.506;2022-09-09T02:07:33;10.48;;;5.22;;
2810;SDS011;1413;52.440;13.506;2022-09-09T02:10:05;10.00;;;5.57;;
2810;SDS011;1413;52.440;13.506;2022-09-09T02:12:36;9.60;;;6.05;;
2810;SDS011;1413;52.440;13.506;2022-09-09T02:15:07;11.45;;;5.38;;
2810;SDS011;1413;52.440;13.506;2022-09-09T02:17:39;10.02;;;5.63;;
2810;SDS011;1413;52.440;13.506;2022-09-09T02:20:09;8.82;;;5.55;;
2810;SDS011;1413;52.440;13.506;2022-09-09T02:22:39;9.77;;;5.75;;
2810;SDS011;1413;52.440;13.506;2022-09-09T02:25:08;9.23;;;5.15;;
2810;SDS011;1413;52.440;13.506;2022-09-09T02:27:36;8.13;;;5.18;;
2810;SDS011;1413;52.440;13.506;2022-09-09T02:30:04;9.90;;;5.25;;
2810;SDS011;1413;52.440;13.506;2022-09-09T02:32:32;9.45;;;5.38;;
2810;SDS011;1413;52.440;13.506;2022-09-09T02:35:02;9.07;;;5.70;;
2810;SDS011;1413;52.440;13.506;2022-09-09T02:37:31;10.15;;;5.63;;
2810;SDS011;1413;52.440;13.506;2022-09-09T02:39:59;9.88;;;5.70;;
2810;SDS011;1413;52.440;13.506;2022-09-09T02:42:27;9.73;;;5.28;;
2810;SDS011;1413;52.440;13.506;2022-09-09T02:44:54;8.82;;;4.90;;
2810;SDS011;1413;52.440;13.506;2022-09-09T02:47:26;10.02;;;5.22;;
2810;SDS011;1413;52.440;13.506;2022-09-09T02:49:57;10.43;;;5.72;;
2810;SDS011;1413;52.440;13.506;2022-09-09T02:52:32;8.07;;;4.82;;
2810;SDS011;1413;52.440;13.506;2022-09-09T02:55:02;11.57;;;5.65;;
2810;SDS011;1413;52.440;13.506;2022-09-09T02:57:32;9.38;;;5.35;;
2810;SDS011;1413;52.440;13.506;2022-09-09T03:00:00;9.02;;;5.35;;
2810;SDS011;1413;52.440;13.506;2022-09-09T03:02:28;8.98;;;5.15;;
2810;SDS011;1413;52.440;13.506;2022-09-09T03:04:56;8.88;;;5.18;;
2810;SDS011;1413;52.440;13.506;2022-09-09T03:07:24;13.32;;;5.53;;
2810;SDS011;1413;52.440;13.506;2022-09-09T03:09:52;11.27;;;5.72;;
2810;SDS011;1413;52.440;13.506;2022-09-09T03:12:20;8.50;;;5.53;;
2810;SDS011;1413;52.440;13.506;2022-09-09T03:14:47;9.98;;;5.43;;
2810;SDS011;1413;52.440;13.506;2022-09-09T03:17:15;9.45;;;5.28;;
2810;SDS011;1413;52.440;13.506;2022-09-09T03:19:42;10.52;;;5.88;;
2810;SDS011;1413;52.440;13.506;2022-09-09T03:22:10;11.63;;;5.40;;
2810;SDS011;1413;52.440;13.506;2022-09-09T03:24:37;10.30;;;5.70;;
2810;SDS011;1413;52.440;13.506;2022-09-09T03:27:06;9.43;;;6.00;;
2810;SDS011;1413;52.440;13.506;2022-09-09T03:29:33;11.40;;;5.70;;
2810;SDS011;1413;52.440;13.506;2022-09-09T03:32:01;9.23;;;5.47;;
2810;SDS011;1413;52.440;13.506;2022-09-09T03:34:29;8.20;;;5.13;;
2810;SDS011;1413;52.440;13.506;2022-09-09T03:36:56;10.50;;;5.88;;
2810;SDS011;1413;52.440;13.506;2022-09-09T03:39:24;11.80;;;5.75;;
2810;SDS011;1413;52.440;13.506;2022-09-09T03:41:51;12.48;;;5.85;;
2810;SDS011;1413;52.440;13.506;2022-09-09T03:44:20;10.82;;;5.47;;
2810;SDS011;1413;52.440;13.506;2022-09-09T03:46:47;8.07;;;4.80;;
2810;SDS011;1413;52.440;13.506;2022-09-09T03:49:15;9.73;;;5.22;;
2810;SDS011;1413;52.440;13.506;2022-09-09T03:51:42;9.63;;;5.47;;
2810;SDS011;1413;52.440;13.506;2022-09-09T03:54:10;11.45;;;5.22;;
2810;SDS011;1413;52.440;13.506;2022-09-09T03:56:37;10.18;;;5.72;;
2810;SDS011;1413;52.440;13.506;2022-09-09T03:59:07;9.18;;;5.47;;
2810;SDS011;1413;52.440;13.506;2022-09-09T04:01:36;9.55;;;5.32;;
2810;SDS011;1413;52.440;13.506;2022-09-09T04:04:03;7.90;;;4.85;;
2810;SDS011;1413;52.440;13.506;2022-09-09T04:06:30;8.73;;;5.25;;
2810;SDS011;1413;52.440;13.506;2022-09-09T04:08:58;11.98;;;5.13;;
2810;SDS011;1413;52.440;13.506;2022-09-09T04:11:25;9.88;;;4.97;;
2810;SDS011;1413;52.440;13.506;2022-09-09T04:13:53;9.77;;;5.32;;
2810;SDS011;1413;52.440;13.506;2022-09-09T04:16:20;11.90;;;5.80;;
2810;SDS011;1413;52.440;13.506;2022-09-09T04:18:49;9.02;;;5.38;;
2810;SDS011;1413;52.440;13.506;2022-09-09T04:21:16;9.43;;;5.80;;
2810;SDS011;1413;52.440;13.506;2022-09-09T04:23:44;9.38;;;5.57;;
2810;SDS011;1413;52.440;13.506;2022-09-09T04:26:11;11.75;;;6.70;;
2810;SDS011;1413;52.440;13.506;2022-09-09T04:28:38;10.57;;;5.30;;
2810;SDS011;1413;52.440;13.506;2022-09-09T04:31:06;12.93;;;5.38;;
2810;SDS011;1413;52.440;13.506;2022-09-09T04:33:35;10.07;;;5.35;;
2810;SDS011;1413;52.440;13.506;2022-09-09T04:36:07;10.73;;;5.72;;
2810;SDS011;1413;52.440;13.506;2022-09-09T04:38:35;11.38;;;5.80;;
2810;SDS011;1413;52.440;13.506;2022-09-09T04:41:03;10.32;;;5.70;;
2810;SDS011;1413;52.440;13.506;2022-09-09T04:43:30;8.48;;;5.00;;
2810;SDS011;1413;52.440;13.506;2022-09-09T04:45:58;9.63;;;5.78;;
2810;SDS011;1413;52.440;13.506;2022-09-09T04:48:26;9.18;;;5.70;;
2810;SDS011;1413;52.440;13.506;2022-09-09T04:50:54;8.88;;;5.03;;
2810;SDS011;1413;52.440;13.506;2022-09-09T04:53:23;9.88;;;5.20;;
2810;SDS011;1413;52.440;13.506;2022-09-09T04:55:51;11.38;;;6.18;;
2810;SDS011;1413;52.440;13.506;2022-09-09T04:58:19;8.75;;;5.63;;
2810;SDS011;1413;52.440;13.506;2022-09-09T05:00:47;19.95;;;10.05;;
2810;SDS011;1413;52.440;13.506;2022-09-09T05:03:15;12.65;;;5.68;;
2810;SDS011;1413;52.440;13.506;2022-09-09T05:05:42;8.75;;;5.25;;
2810;SDS011;1413;52.440;13.506;2022-09-09T05:08:11;9.20;;;5.32;;
2810;SDS011;1413;52.440;13.506;2022-09-09T05:10:39;9.98;;;5.07;;
2810;SDS011;1413;52.440;13.506;2022-09-09T05:13:08;8.63;;;4.88;;
2810;SDS011;1413;52.440;13.506;2022-09-09T05:15:35;9.35;;;5.20;;
2810;SDS011;1413;52.440;13.506;2022-09-09T05:18:02;9.93;;;5.32;;
2810;SDS011;1413;52.440;13.506;2022-09-09T05:20:30;7.80;;;4.65;;
2810;SDS011;1413;52.440;13.506;2022-09-09T05:22:58;9.93;;;4.97;;
2810;SDS011;1413;52.440;13.506;2022-09-09T05:25:25;9.23;;;4.95;;
2810;SDS011;1413;52.440;13.506;2022-09-09T05:27:54;9.65;;;5.20;;
2810;SDS011;1413;52.440;13.506;2022-09-09T05:30:21;9.05;;;4.43;;
2810;SDS011;1413;52.440;13.506;2022-09-09T05:32:52;11.27;;;4.75;;
2810;SDS011;1413;52.440;13.506;2022-09-09T05:35:22;7.55;;;4.68;;
2810;SDS011;1413;52.440;13.506;2022-09-09T05:37:49;10.55;;;4.85;;
2810;SDS011;1413;52.440;13.506;2022-09-09T05:40:17;8.57;;;4.53;;
2810;SDS011;1413;52.440;13.506;2022-09-09T05:42:44;9.07;;;4.38;;
2810;SDS011;1413;52.440;13.506;2022-09-09T05:45:13;8.88;;;4.63;;
2810;SDS011;1413;52.440;13.506;2022-09-09T05:47:41;8.98;;;4.32;;
2810;SDS011;1413;52.440;13.506;2022-09-09T05:50:08;9.32;;;4.50;;
2810;SDS011;1413;52.440;13.506;2022-09-09T05:52:36;8.55;;;4.00;;
2810;SDS011;1413;52.440;13.506;2022-09-09T05:55:03;10.80;;;4.13;;
2810;SDS011;1413;52.440;13.506;2022-09-09T05:57:31;8.20;;;3.88;;
2810;SDS011;1413;52.440;13.506;2022-09-09T05:59:58;11.38;;;4.55;;
2810;SDS011;1413;52.440;13.506;2022-09-09T06:02:27;9.57;;;4.15;;
2810;SDS011;1413;52.440;13.506;2022-09-09T06:04:55;9.93;;;4.13;;
2810;SDS011;1413;52.440;13.506;2022-09-09T06:07:26;12.35;;;4.80;;
2810;SDS011;1413;52.440;13.506;2022-09-09T06:09:53;7.85;;;3.97;;
2810;SDS011;1413;52.440;13.506;2022-09-09T06:12:21;9.18;;;3.90;;
2810;SDS011;1413;52.440;13.506;2022-09-09T06:14:49;10.20;;;3.75;;
2810;SDS011;1413;52.440;13.506;2022-09-09T06:17:17;8.90;;;3.60;;
2810;SDS011;1413;52.440;13.506;2022-09-09T06:19:45;7.85;;;3.60;;
2810;SDS011;1413;52.440;13.506;2022-09-09T06:22:13;8.13;;;3.78;;
2810;SDS011;1413;52.440;13.506;2022-09-09T06:24:40;5.68;;;3.42;;
2810;SDS011;1413;52.440;13.506;2022-09-09T06:27:08;7.43;;;3.33;;
2810;SDS011;1413;52.440;13.506;2022-09-09T06:29:36;8.93;;;3.33;;
2810;SDS011;1413;52.440;13.506;2022-09-09T06:32:04;7.53;;;3.65;;
2810;SDS011;1413;52.440;13.506;2022-09-09T06:34:31;7.45;;;3.80;;
2810;SDS011;1413;52.440;13.506;2022-09-09T06:37:00;5.45;;;3.17;;
2810;SDS011;1413;52.440;13.506;2022-09-09T06:39:27;5.03;;;2.70;;
2810;SDS011;1413;52.440;13.506;2022-09-09T06:41:55;7.13;;;2.80;;
2810;SDS011;1413;52.440;13.506;2022-09-09T06:44:24;8.35;;;3.72;;
2810;SDS011;1413;52.440;13.506;2022-09-09T06:46:57;9.13;;;2.67;;
2810;SDS011;1413;52.440;13.506;2022-09-09T06:49:24;5.60;;;2.60;;
2810;SDS011;1413;52.440;13.506;2022-09-09T06:51:52;5.78;;;2.70;;
2810;SDS011;1413;52.440;13.506;2022-09-09T06:54:21;5.05;;;2.05;;
2810;SDS011;1413;52.440;13.506;2022-09-09T06:56:49;4.47;;;2.17;;
2810;SDS011;1413;52.440;13.506;2022-09-09T06:59:17;7.72;;;2.55;;
2810;SDS011;1413;52.440;13.506;2022-09-09T07:01:44;5.32;;;2.03;;
2810;SDS011;1413;52.440;13.506;2022-09-09T07:04:16;5.05;;;2.13;;
2810;SDS011;1413;52.440;13.506;2022-09-09T07:06:44;6.15;;;2.22;;
2810;SDS011;1413;52.440;13.506;2022-09-09T07:09:12;7.60;;;2.03;;
2810;SDS011;1413;52.440;13.506;2022-09-09T07:11:42;5.65;;;2.50;;
2810;SDS011;1413;52.440;13.506;2022-09-09T07:14:11;6.15;;;2.30;;
2810;SDS011;1413;52.440;13.506;2022-09-09T07:16:40;5.13;;;2.15;;
2810;SDS011;1413;52.440;13.506;2022-09-09T07:19:08;5.32;;;1.90;;
2810;SDS011;1413;52.440;13.506;2022-09-09T07:21:35;7.72;;;2.40;;
2810;SDS011;1413;52.440;13.506;2022-09-09T07:24:03;6.88;;;2.08;;
2810;SDS011;1413;52.440;13.506;2022-09-09T07:26:33;9.55;;;2.78;;
2810;SDS011;1413;52.440;13.506;2022-09-09T07:29:02;9.60;;;2.80;;
2810;SDS011;1413;52.440;13.506;2022-09-09T07:31:31;6.40;;;2.00;;
2810;SDS011;1413;52.440;13.506;2022-09-09T07:33:58;8.45;;;2.08;;
2810;SDS011;1413;52.440;13.506;2022-09-09T07:36:27;5.75;;;1.70;;
2810;SDS011;1413;52.440;13.506;2022-09-09T07:38:59;4.47;;;2.00;;
2810;SDS011;1413;52.440;13.506;2022-09-09T07:41:28;9.02;;;1.75;;
2810;SDS011;1413;52.440;13.506;2022-09-09T07:43:56;7.53;;;1.65;;
2810;SDS011;1413;52.440;13.506;2022-09-09T07:46:25;4.55;;;1.48;;
2810;SDS011;1413;52.440;13.506;2022-09-09T07:48:53;4.97;;;1.63;;
2810;SDS011;1413;52.440;13.506;2022-09-09T07:51:22;7.40;;;2.15;;
2810;SDS011;1413;52.440;13.506;2022-09-09T07:53:51;4.40;;;1.40;;
2810;SDS011;1413;52.440;13.506;2022-09-09T07:56:19;6.80;;;1.20;;
2810;SDS011;1413;52.440;13.506;2022-09-09T07:58:48;7.75;;;1.38;;
2810;SDS011;1413;52.440;13.506;2022-09-09T08:01:16;5.50;;;1.40;;
2810;SDS011;1413;52.440;13.506;2022-09-09T08:03:45;7.20;;;1.73;;
2810;SDS011;1413;52.440;13.506;2022-09-09T08:06:15;7.22;;;1.20;;
2810;SDS011;1413;52.440;13.506;2022-09-09T08:08:42;5.43;;;1.23;;
2810;SDS011;1413;52.440;13.506;2022-09-09T08:11:10;3.70;;;1.20;;
2810;SDS011;1413;52.440;13.506;2022-09-09T08:13:38;5.15;;;1.52;;
2810;SDS011;1413;52.440;13.506;2022-09-09T08:16:06;4.13;;;1.13;;
2810;SDS011;1413;52.440;13.506;2022-09-09T08:18:34;5.57;;;1.60;;
2810;SDS011;1413;52.440;13.506;2022-09-09T08:21:07;3.53;;;0.80;;
2810;SDS011;1413;52.440;13.506;2022-09-09T08:23:35;5.95;;;1.00;;
2810;SDS011;1413;52.440;13.506;2022-09-09T08:26:03;4.53;;;1.13;;
2810;SDS011;1413;52.440;13.506;2022-09-09T08:28:31;3.53;;;0.90;;
2810;SDS011;1413;52.440;13.506;2022-09-09T08:31:04;7.60;;;1.13;;
2810;SDS011;1413;52.440;13.506;2022-09-09T08:33:32;4.45;;;1.27;;
2810;SDS011;1413;52.440;13.506;2022-09-09T08:35:59;6.07;;;1.10;;
2810;SDS011;1413;52.440;13.506;2022-09-09T08:38:28;4.95;;;1.45;;
2810;SDS011;1413;52.440;13.506;2022-09-09T08:40:57;5.18;;;1.30;;
2810;SDS011;1413;52.440;13.506;2022-09-09T08:43:32;3.75;;;1.10;;
2810;SDS011;1413;52.440;13.506;2022-09-09T08:46:01;2.80;;;1.13;;
2810;SDS011;1413;52.440;13.506;2022-09-09T08:48:38;5.72;;;1.10;;
2810;SDS011;1413;52.440;13.506;2022-09-09T08:51:07;3.80;;;0.93;;
2810;SDS011;1413;52.440;13.506;2022-09-09T08:53:38;7.88;;;1.40;;
2810;SDS011;1413;52.440;13.506;2022-09-09T08:56:08;4.97;;;1.15;;
2810;SDS011;1413;52.440;13.506;2022-09-09T08:58:40;5.95;;;1.00;;
2810;SDS011;1413;52.440;13.506;2022-09-09T09:01:15;5.32;;;1.00;;
2810;SDS011;1413;52.440;13.506;2022-09-09T09:03:48;3.08;;;0.90;;
2810;SDS011;1413;52.440;13.506;2022-09-09T09:06:22;4.22;;;1.05;;
2810;SDS011;1413;52.440;13.506;2022-09-09T09:08:56;3.33;;;1.00;;
2810;SDS011;1413;52.440;13.506;2022-09-09T09:11:27;2.63;;;0.80;;
2810;SDS011;1413;52.440;13.506;2022-09-09T09:13:54;8.23;;;1.50;;
2810;SDS011;1413;52.440;13.506;2022-09-09T09:16:26;5.15;;;1.35;;
2810;SDS011;1413;52.440;13.506;2022-09-09T09:18:58;3.00;;;0.98;;
2810;SDS011;1413;52.440;13.506;2022-09-09T09:21:28;4.32;;;1.00;;
2810;SDS011;1413;52.440;13.506;2022-09-09T09:24:01;5.88;;;1.08;;
2810;SDS011;1413;52.440;13.506;2022-09-09T09:26:30;7.18;;;1.33;;
2810;SDS011;1413;52.440;13.506;2022-09-09T09:28:58;5.28;;;1.15;;
2810;SDS011;1413;52.440;13.506;2022-09-09T09:31:25;4.82;;;1.08;;
2810;SDS011;1413;52.440;13.506;2022-09-09T09:33:54;4.72;;;1.33;;
2810;SDS011;1413;52.440;13.506;2022-09-09T09:36:23;4.90;;;1.00;;
2810;SDS011;1413;52.440;13.506;2022-09-09T09:38:51;5.65;;;1.50;;
2810;SDS011;1413;52.440;13.506;2022-09-09T09:41:41;3.55;;;0.88;;
2810;SDS011;1413;52.440;13.506;2022-09-09T09:44:20;4.70;;;0.80;;
2810;SDS011;1413;52.440;13.506;2022-09-09T09:46:48;4.65;;;1.17;;
2810;SDS011;1413;52.440;13.506;2022-09-09T09:49:16;13.82;;;1.20;;
2810;SDS011;1413;52.440;13.506;2022-09-09T09:51:44;3.55;;;0.93;;
2810;SDS011;1413;52.440;13.506;2022-09-09T09:54:16;3.63;;;1.00;;
2810;SDS011;1413;52.440;13.506;2022-09-09T09:56:46;6.60;;;0.98;;
2810;SDS011;1413;52.440;13.506;2022-09-09T09:59:23;3.90;;;1.00;;
2810;SDS011;1413;52.440;13.506;2022-09-09T10:02:17;5.03;;;1.00;;
2810;SDS011;1413;52.440;13.506;2022-09-09T10:04:45;3.25;;;0.80;;
2810;SDS011;1413;52.440;13.506;2022-09-09T10:07:13;5.30;;;0.90;;
2810;SDS011;1413;52.440;13.506;2022-09-09T10:09:44;4.43;;;0.82;;
2810;SDS011;1413;52.440;13.506;2022-09-09T10:12:17;3.53;;;0.90;;
2810;SDS011;1413;52.440;13.506;2022-09-09T10:14:48;6.90;;;1.20;;
2810;SDS011;1413;52.440;13.506;2022-09-09T10:17:18;4.95;;;0.90;;
2810;SDS011;1413;52.440;13.506;2022-09-09T10:19:51;3.58;;;1.08;;
2810;SDS011;1413;52.440;13.506;2022-09-09T10:22:25;4.07;;;1.00;;
2810;SDS011;1413;52.440;13.506;2022-09-09T10:25:11;3.28;;;1.02;;
2810;SDS011;1413;52.440;13.506;2022-09-09T10:27:44;4.70;;;0.90;;
2810;SDS011;1413;52.440;13.506;2022-09-09T10:30:23;4.80;;;0.90;;
2810;SDS011;1413;52.440;13.506;2022-09-09T10:32:53;5.28;;;0.90;;
2810;SDS011;1413;52.440;13.506;2022-09-09T10:35:25;5.88;;;1.20;;
2810;SDS011;1413;52.440;13.506;2022-09-09T10:38:03;6.10;;;1.20;;
2810;SDS011;1413;52.440;13.506;2022-09-09T10:40:38;4.57;;;0.98;;
2810;SDS011;1413;52.440;13.506;2022-09-09T10:43:12;5.35;;;0.82;;
2810;SDS011;1413;52.440;13.506;2022-09-09T10:45:43;6.88;;;0.90;;
2810;SDS011;1413;52.440;13.506;2022-09-09T10:48:18;6.60;;;1.00;;
2810;SDS011;1413;52.440;13.506;2022-09-09T10:50:51;4.78;;;1.27;;
2810;SDS011;1413;52.440;13.506;2022-09-09T10:53:37;4.63;;;0.90;;
2810;SDS011;1413;52.440;13.506;2022-09-09T10:56:09;4.85;;;0.90;;
2810;SDS011;1413;52.440;13.506;2022-09-09T10:58:40;3.60;;;0.93;;
2810;SDS011;1413;52.440;13.506;2022-09-09T11:01:10;4.30;;;0.82;;
2810;SDS011;1413;52.440;13.506;2022-09-09T11:03:40;6.03;;;1.02;;
2810;SDS011;1413;52.440;13.506;2022-09-09T11:06:09;3.95;;;0.90;;
2810;SDS011;1413;52.440;13.506;2022-09-09T11:08:40;4.93;;;0.95;;
2810;SDS011;1413;52.440;13.506;2022-09-09T11:11:09;4.68;;;0.70;;
2810;SDS011;1413;52.440;13.506;2022-09-09T11:13:39;4.25;;;1.05;;
2810;SDS011;1413;52.440;13.506;2022-09-09T11:16:14;3.20;;;0.70;;
2810;SDS011;1413;52.440;13.506;2022-09-09T11:18:43;7.15;;;0.98;;
2810;SDS011;1413;52.440;13.506;2022-09-09T11:21:13;4.28;;;0.77;;
2810;SDS011;1413;52.440;13.506;2022-09-09T11:23:44;3.33;;;0.68;;
2810;SDS011;1413;52.440;13.506;2022-09-09T11:26:14;4.97;;;0.75;;
2810;SDS011;1413;52.440;13.506;2022-09-09T11:28:50;5.13;;;1.17;;
2810;SDS011;1413;52.440;13.506;2022-09-09T11:31:34;5.28;;;0.80;;
2810;SDS011;1413;52.440;13.506;2022-09-09T11:34:12;6.30;;;1.25;;
2810;SDS011;1413;52.440;13.506;2022-09-09T11:36:50;3.25;;;0.70;;
2810;SDS011;1413;52.440;13.506;2022-09-09T11:39:28;3.25;;;0.80;;
2810;SDS011;1413;52.440;13.506;2022-09-09T11:42:05;2.72;;;0.80;;
2810;SDS011;1413;52.440;13.506;2022-09-09T11:44:34;4.55;;;0.80;;
2810;SDS011;1413;52.440;13.506;2022-09-09T11:47:15;5.13;;;0.80;;
2810;SDS011;1413;52.440;13.506;2022-09-09T11:49:43;3.80;;;0.80;;
2810;SDS011;1413;52.440;13.506;2022-09-09T11:52:12;4.13;;;1.00;;
2810;SDS011;1413;52.440;13.506;2022-09-09T11:54:44;4.13;;;0.70;;
2810;SDS011;1413;52.440;13.506;2022-09-09T11:57:17;3.05;;;0.73;;
2810;SDS011;1413;52.440;13.506;2022-09-09T11:59:51;4.03;;;0.80;;
2810;SDS011;1413;52.440;13.506;2022-09-09T12:02:22;3.65;;;0.60;;
2810;SDS011;1413;52.440;13.506;2022-09-09T12:04:54;4.32;;;0.77;;
2810;SDS011;1413;52.440;13.506;2022-09-09T12:07:24;2.58;;;0.60;;
2810;SDS011;1413;52.440;13.506;2022-09-09T12:09:56;4.15;;;0.60;;
2810;SDS011;1413;52.440;13.506;2022-09-09T12:12:29;3.50;;;0.75;;
2810;SDS011;1413;52.440;13.506;2022-09-09T12:17:44;2.83;;;0.50;;
2810;SDS011;1413;52.440;13.506;2022-09-09T12:20:13;3.67;;;0.93;;
2810;SDS011;1413;52.440;13.506;2022-09-09T12:22:51;4.15;;;0.93;;
2810;SDS011;1413;52.440;13.506;2022-09-09T12:25:22;3.65;;;0.88;;
2810;SDS011;1413;52.440;13.506;2022-09-09T12:27:55;2.55;;;0.50;;
2810;SDS011;1413;52.440;13.506;2022-09-09T12:30:28;4.28;;;0.70;;
2810;SDS011;1413;52.440;13.506;2022-09-09T12:33:01;3.78;;;0.70;;
2810;SDS011;1413;52.440;13.506;2022-09-09T12:35:29;2.65;;;0.55;;
2810;SDS011;1413;52.440;13.506;2022-09-09T12:37:57;3.90;;;0.63;;
2810;SDS011;1413;52.440;13.506;2022-09-09T12:40:26;2.97;;;0.45;;
2810;SDS011;1413;52.440;13.506;2022-09-09T12:42:54;5.63;;;0.85;;
2810;SDS011;1413;52.440;13.506;2022-09-09T12:45:22;4.25;;;0.73;;
2810;SDS011;1413;52.440;13.506;2022-09-09T12:50:21;2.17;;;0.60;;
2810;SDS011;1413;52.440;13.506;2022-09-09T12:52:49;3.45;;;0.55;;
2810;SDS011;1413;52.440;13.506;2022-09-09T12:55:18;6.18;;;0.80;;
2810;SDS011;1413;52.440;13.506;2022-09-09T12:57:47;4.00;;;0.80;;
2810;SDS011;1413;52.440;13.506;2022-09-09T13:00:17;3.10;;;0.70;;
2810;SDS011;1413;52.440;13.506;2022-09-09T13:05:14;5.80;;;0.60;;
2810;SDS011;1413;52.440;13.506;2022-09-09T13:07:44;3.45;;;0.60;;
2810;SDS011;1413;52.440;13.506;2022-09-09T13:10:11;3.53;;;0.50;;
2810;SDS011;1413;52.440;13.506;2022-09-09T13:12:50;4.07;;;0.90;;
2810;SDS011;1413;52.440;13.506;2022-09-09T13:15:19;2.65;;;0.52;;
2810;SDS011;1413;52.440;13.506;2022-09-09T13:17:49;4.05;;;0.70;;
2810;SDS011;1413;52.440;13.506;2022-09-09T13:20:17;3.70;;;0.73;;
2810;SDS011;1413;52.440;13.506;2022-09-09T13:22:47;4.13;;;0.80;;
2810;SDS011;1413;52.440;13.506;2022-09-09T13:25:17;4.72;;;1.05;;
2810;SDS011;1413;52.440;13.506;2022-09-09T13:27:51;3.70;;;0.70;;
2810;SDS011;1413;52.440;13.506;2022-09-09T13:30:20;3.97;;;0.70;;
2810;SDS011;1413;52.440;13.506;2022-09-09T13:32:59;4.00;;;0.82;;
2810;SDS011;1413;52.440;13.506;2022-09-09T13:35:28;5.05;;;0.70;;
2810;SDS011;1413;52.440;13.506;2022-09-09T13:37:56;4.75;;;0.70;;
2810;SDS011;1413;52.440;13.506;2022-09-09T13:40:24;3.60;;;0.70;;
2810;SDS011;1413;52.440;13.506;2022-09-09T13:42:52;4.13;;;0.63;;
2810;SDS011;1413;52.440;13.506;2022-09-09T13:45:21;3.97;;;0.68;;
2810;SDS011;1413;52.440;13.506;2022-09-09T13:47:49;3.67;;;0.55;;
2810;SDS011;1413;52.440;13.506;2022-09-09T13:50:19;4.00;;;0.77;;
2810;SDS011;1413;52.440;13.506;2022-09-09T13:52:47;2.90;;;0.80;;
2810;SDS011;1413;52.440;13.506;2022-09-09T13:55:16;3.38;;;0.70;;
2810;SDS011;1413;52.440;13.506;2022-09-09T13:57:50;3.85;;;0.60;;
2810;SDS011;1413;52.440;13.506;2022-09-09T14:00:18;3.28;;;0.82;;
2810;SDS011;1413;52.440;13.506;2022-09-09T14:02:46;4.80;;;0.88;;
2810;SDS011;1413;52.440;13.506;2022-09-09T14:05:14;3.42;;;0.70;;
2810;SDS011;1413;52.440;13.506;2022-09-09T14:07:42;4.15;;;1.02;;
2810;SDS011;1413;52.440;13.506;2022-09-09T14:10:10;3.47;;;0.80;;
2810;SDS011;1413;52.440;13.506;2022-09-09T14:12:39;3.90;;;0.70;;
2810;SDS011;1413;52.440;13.506;2022-09-09T14:15:07;3.63;;;0.73;;
2810;SDS011;1413;52.440;13.506;2022-09-09T14:17:35;2.83;;;0.52;;
2810;SDS011;1413;52.440;13.506;2022-09-09T14:20:02;5.00;;;1.17;;
2810;SDS011;1413;52.440;13.506;2022-09-09T14:22:31;6.20;;;0.93;;
2810;SDS011;1413;52.440;13.506;2022-09-09T14:24:58;4.20;;;1.15;;
2810;SDS011;1413;52.440;13.506;2022-09-09T14:27:26;3.95;;;1.00;;
2810;SDS011;1413;52.440;13.506;2022-09-09T14:29:54;3.20;;;0.82;;
2810;SDS011;1413;52.440;13.506;2022-09-09T14:32:22;4.43;;;1.20;;
2810;SDS011;1413;52.440;13.506;2022-09-09T14:34:49;6.10;;;1.08;;
2810;SDS011;1413;52.440;13.506;2022-09-09T14:37:17;3.97;;;0.82;;
2810;SDS011;1413;52.440;13.506;2022-09-09T14:39:44;5.95;;;0.70;;
2810;SDS011;1413;52.440;13.506;2022-09-09T14:42:13;3.33;;;0.50;;
2810;SDS011;1413;52.440;13.506;2022-09-09T14:44:40;6.63;;;1.23;;
2810;SDS011;1413;52.440;13.506;2022-09-09T14:47:09;4.20;;;0.90;;
2810;SDS011;1413;52.440;13.506;2022-09-09T14:49:36;3.88;;;0.63;;
2810;SDS011;1413;52.440;13.506;2022-09-09T14:52:07;7.85;;;1.20;;
2810;SDS011;1413;52.440;13.506;2022-09-09T14:54:35;6.28;;;1.15;;
2810;SDS011;1413;52.440;13.506;2022-09-09T14:57:02;4.47;;;1.10;;
2810;SDS011;1413;52.440;13.506;2022-09-09T14:59:30;2.72;;;0.70;;
2810;SDS011;1413;52.440;13.506;2022-09-09T15:01:57;3.92;;;1.15;;
2810;SDS011;1413;52.440;13.506;2022-09-09T15:04:31;5.20;;;0.90;;
2810;SDS011;1413;52.440;13.506;2022-09-09T15:06:58;5.18;;;0.90;;
2810;SDS011;1413;52.440;13.506;2022-09-09T15:09:26;3.13;;;0.80;;
2810;SDS011;1413;52.440;13.506;2022-09-09T15:11:53;3.58;;;0.80;;
2810;SDS011;1413;52.440;13.506;2022-09-09T15:14:21;5.10;;;1.25;;
2810;SDS011;1413;52.440;13.506;2022-09-09T15:19:18;2.85;;;0.90;;
2810;SDS011;1413;52.440;13.506;2022-09-09T15:21:47;5.18;;;1.00;;
2810;SDS011;1413;52.440;13.506;2022-09-09T15:24:15;4.18;;;0.95;;
2810;SDS011;1413;52.440;13.506;2022-09-09T15:26:51;6.18;;;1.60;;
2810;SDS011;1413;52.440;13.506;2022-09-09T15:29:18;3.63;;;0.77;;